sensor_id;sensor_type;location;lat;lon;timestamp;P1;durP1;ratioP1;P2;durP2;ratioP2
63975;SDS011;50167;47.958;21.780;2023-09-07T00:01:52;6.07;;;4.47;;
63975;SDS011;50167;47.958;21.780;2023-09-07T00:04:18;8.03;;;4.20;;
63975;SDS011;50167;47.958;21.780;2023-09-07T00:06:47;7.80;;;4.50;;
63975;SDS011;50167;47.958;21.780;2023-09-07T00:09:15;6.23;;;3.80;;
63975;SDS011;50167;47.958;21.780;2023-09-07T00:11:44;6.63;;;4.63;;
63975;SDS011;50167;47.958;21.780;2023-09-07T00:14:11;5.10;;;4.07;;
63975;SDS011;50167;47.958;21.780;2023-09-07T00:16:37;7.13;;;4.73;;
63975;SDS011;50167;47.958;21.780;2023-09-07T00:19:07;6.17;;;4.27;;
63975;SDS011;50167;47.958;21.780;2023-09-07T00:21:31;5.63;;;4.53;;
63975;SDS011;50167;47.958;21.780;2023-09-07T00:23:57;9.70;;;5.07;;
63975;SDS011;50167;47.958;21.780;2023-09-07T00:26:24;6.93;;;4.13;;
63975;SDS011;50167;47.958;21.780;2023-09-07T00:28:50;19.30;;;4.80;;
63975;SDS011;50167;47.958;21.780;2023-09-07T00:31:16;7.60;;;4.50;;
63975;SDS011;50167;47.958;21.780;2023-09-07T00:33:42;8.60;;;5.00;;
63975;SDS011;50167;47.958;21.780;2023-09-07T00:36:08;8.20;;;4.83;;
63975;SDS011;50167;47.958;21.780;2023-09-07T00:38:34;5.63;;;3.93;;
63975;SDS011;50167;47.958;21.780;2023-09-07T00:41:00;8.03;;;4.33;;
63975;SDS011;50167;47.958;21.780;2023-09-07T00:43:26;7.57;;;5.40;;
63975;SDS011;50167;47.958;21.780;2023-09-07T00:45:53;7.47;;;4.40;;
63975;SDS011;50167;47.958;21.780;2023-09-07T00:48:19;9.43;;;4.30;;
63975;SDS011;50167;47.958;21.780;2023-09-07T00:50:46;6.17;;;4.80;;
63975;SDS011;50167;47.958;21.780;2023-09-07T00:53:13;10.30;;;5.10;;
63975;SDS011;50167;47.958;21.780;2023-09-07T00:55:40;10.80;;;5.30;;
63975;SDS011;50167;47.958;21.780;2023-09-07T00:58:07;7.33;;;5.20;;
63975;SDS011;50167;47.958;21.780;2023-09-07T01:00:33;6.87;;;4.27;;
63975;SDS011;50167;47.958;21.780;2023-09-07T01:03:00;6.20;;;4.43;;
63975;SDS011;50167;47.958;21.780;2023-09-07T01:05:34;6.70;;;4.97;;
63975;SDS011;50167;47.958;21.780;2023-09-07T01:08:07;10.57;;;5.07;;
63975;SDS011;50167;47.958;21.780;2023-09-07T01:10:42;7.50;;;4.53;;
63975;SDS011;50167;47.958;21.780;2023-09-07T01:13:08;9.73;;;5.20;;
63975;SDS011;50167;47.958;21.780;2023-09-07T01:15:35;6.30;;;3.97;;
63975;SDS011;50167;47.958;21.780;2023-09-07T01:18:03;8.93;;;4.50;;
63975;SDS011;50167;47.958;21.780;2023-09-07T01:20:31;13.93;;;5.80;;
63975;SDS011;50167;47.958;21.780;2023-09-07T01:22:59;10.67;;;5.17;;
63975;SDS011;50167;47.958;21.780;2023-09-07T01:25:27;9.43;;;5.30;;
63975;SDS011;50167;47.958;21.780;2023-09-07T01:27:53;8.10;;;4.73;;
63975;SDS011;50167;47.958;21.780;2023-09-07T01:30:20;8.20;;;4.83;;
63975;SDS011;50167;47.958;21.780;2023-09-07T01:32:47;8.33;;;4.63;;
63975;SDS011;50167;47.958;21.780;2023-09-07T01:35:15;9.60;;;4.93;;
63975;SDS011;50167;47.958;21.780;2023-09-07T01:37:45;8.90;;;5.20;;
63975;SDS011;50167;47.958;21.780;2023-09-07T01:40:12;11.70;;;5.70;;
63975;SDS011;50167;47.958;21.780;2023-09-07T01:42:38;9.53;;;4.83;;
63975;SDS011;50167;47.958;21.780;2023-09-07T01:45:05;8.90;;;4.93;;
63975;SDS011;50167;47.958;21.780;2023-09-07T01:47:32;8.13;;;5.20;;
63975;SDS011;50167;47.958;21.780;2023-09-07T01:49:59;9.30;;;6.00;;
63975;SDS011;50167;47.958;21.780;2023-09-07T01:52:25;7.13;;;4.63;;
63975;SDS011;50167;47.958;21.780;2023-09-07T01:54:51;7.13;;;4.83;;
63975;SDS011;50167;47.958;21.780;2023-09-07T01:57:17;9.47;;;5.57;;
63975;SDS011;50167;47.958;21.780;2023-09-07T01:59:44;9.73;;;5.40;;
63975;SDS011;50167;47.958;21.780;2023-09-07T02:02:10;7.80;;;5.67;;
63975;SDS011;50167;47.958;21.780;2023-09-07T02:04:36;6.97;;;5.40;;
63975;SDS011;50167;47.958;21.780;2023-09-07T02:07:02;11.63;;;5.80;;
63975;SDS011;50167;47.958;21.780;2023-09-07T02:09:29;9.97;;;5.40;;
63975;SDS011;50167;47.958;21.780;2023-09-07T02:11:56;6.73;;;4.90;;
63975;SDS011;50167;47.958;21.780;2023-09-07T02:14:22;9.73;;;5.23;;
63975;SDS011;50167;47.958;21.780;2023-09-07T02:16:48;8.83;;;6.20;;
63975;SDS011;50167;47.958;21.780;2023-09-07T02:19:14;8.03;;;5.40;;
63975;SDS011;50167;47.958;21.780;2023-09-07T02:21:41;9.27;;;5.03;;
63975;SDS011;50167;47.958;21.780;2023-09-07T02:24:07;11.70;;;6.47;;
63975;SDS011;50167;47.958;21.780;2023-09-07T02:26:33;8.43;;;5.60;;
63975;SDS011;50167;47.958;21.780;2023-09-07T02:28:59;9.50;;;6.27;;
63975;SDS011;50167;47.958;21.780;2023-09-07T02:31:27;9.50;;;5.03;;
63975;SDS011;50167;47.958;21.780;2023-09-07T02:33:54;12.80;;;5.87;;
63975;SDS011;50167;47.958;21.780;2023-09-07T02:36:20;13.07;;;5.70;;
63975;SDS011;50167;47.958;21.780;2023-09-07T02:38:46;8.70;;;5.47;;
63975;SDS011;50167;47.958;21.780;2023-09-07T02:41:14;9.70;;;5.10;;
63975;SDS011;50167;47.958;21.780;2023-09-07T02:43:40;9.30;;;5.33;;
63975;SDS011;50167;47.958;21.780;2023-09-07T02:46:06;10.97;;;5.90;;
63975;SDS011;50167;47.958;21.780;2023-09-07T02:48:32;6.23;;;4.23;;
63975;SDS011;50167;47.958;21.780;2023-09-07T02:50:59;14.03;;;6.03;;
63975;SDS011;50167;47.958;21.780;2023-09-07T02:53:25;10.23;;;5.33;;
63975;SDS011;50167;47.958;21.780;2023-09-07T02:55:52;11.30;;;6.50;;
63975;SDS011;50167;47.958;21.780;2023-09-07T02:58:18;9.93;;;6.07;;
63975;SDS011;50167;47.958;21.780;2023-09-07T03:00:44;10.43;;;6.50;;
63975;SDS011;50167;47.958;21.780;2023-09-07T03:03:12;10.63;;;5.87;;
63975;SDS011;50167;47.958;21.780;2023-09-07T03:05:40;12.67;;;7.37;;
63975;SDS011;50167;47.958;21.780;2023-09-07T03:08:07;12.47;;;5.70;;
63975;SDS011;50167;47.958;21.780;2023-09-07T03:10:37;10.93;;;6.03;;
63975;SDS011;50167;47.958;21.780;2023-09-07T03:13:05;13.63;;;5.57;;
63975;SDS011;50167;47.958;21.780;2023-09-07T03:15:32;13.07;;;6.20;;
63975;SDS011;50167;47.958;21.780;2023-09-07T03:17:59;10.97;;;6.77;;
63975;SDS011;50167;47.958;21.780;2023-09-07T03:20:26;10.20;;;6.40;;
63975;SDS011;50167;47.958;21.780;2023-09-07T03:22:52;14.80;;;6.87;;
63975;SDS011;50167;47.958;21.780;2023-09-07T03:25:18;9.63;;;7.17;;
63975;SDS011;50167;47.958;21.780;2023-09-07T03:27:45;11.90;;;6.33;;
63975;SDS011;50167;47.958;21.780;2023-09-07T03:30:11;15.60;;;7.87;;
63975;SDS011;50167;47.958;21.780;2023-09-07T03:32:37;9.77;;;6.23;;
63975;SDS011;50167;47.958;21.780;2023-09-07T03:35:04;9.20;;;6.00;;
63975;SDS011;50167;47.958;21.780;2023-09-07T03:37:35;10.87;;;6.83;;
63975;SDS011;50167;47.958;21.780;2023-09-07T03:40:03;10.63;;;6.77;;
63975;SDS011;50167;47.958;21.780;2023-09-07T03:42:30;9.20;;;5.70;;
63975;SDS011;50167;47.958;21.780;2023-09-07T03:44:56;10.97;;;6.43;;
63975;SDS011;50167;47.958;21.780;2023-09-07T03:47:23;9.97;;;6.13;;
63975;SDS011;50167;47.958;21.780;2023-09-07T03:49:51;11.37;;;6.73;;
63975;SDS011;50167;47.958;21.780;2023-09-07T03:52:18;12.20;;;6.43;;
63975;SDS011;50167;47.958;21.780;2023-09-07T03:54:44;13.43;;;7.17;;
63975;SDS011;50167;47.958;21.780;2023-09-07T03:57:10;15.70;;;7.30;;
63975;SDS011;50167;47.958;21.780;2023-09-07T03:59:36;16.60;;;7.53;;
63975;SDS011;50167;47.958;21.780;2023-09-07T04:02:03;12.10;;;6.73;;
63975;SDS011;50167;47.958;21.780;2023-09-07T04:04:29;11.23;;;5.97;;
63975;SDS011;50167;47.958;21.780;2023-09-07T04:06:55;9.40;;;6.23;;
63975;SDS011;50167;47.958;21.780;2023-09-07T04:09:21;13.90;;;6.87;;
63975;SDS011;50167;47.958;21.780;2023-09-07T04:11:47;8.97;;;6.30;;
63975;SDS011;50167;47.958;21.780;2023-09-07T04:14:14;9.17;;;6.67;;
63975;SDS011;50167;47.958;21.780;2023-09-07T04:16:40;11.60;;;6.67;;
63975;SDS011;50167;47.958;21.780;2023-09-07T04:19:06;9.77;;;6.07;;
63975;SDS011;50167;47.958;21.780;2023-09-07T04:21:32;11.90;;;7.00;;
63975;SDS011;50167;47.958;21.780;2023-09-07T04:23:58;18.27;;;7.40;;
63975;SDS011;50167;47.958;21.780;2023-09-07T04:26:25;15.50;;;7.23;;
63975;SDS011;50167;47.958;21.780;2023-09-07T04:28:51;11.43;;;6.13;;
63975;SDS011;50167;47.958;21.780;2023-09-07T04:31:17;9.93;;;6.63;;
63975;SDS011;50167;47.958;21.780;2023-09-07T04:33:44;12.03;;;6.30;;
63975;SDS011;50167;47.958;21.780;2023-09-07T04:36:10;15.20;;;6.37;;
63975;SDS011;50167;47.958;21.780;2023-09-07T04:38:38;11.40;;;5.63;;
63975;SDS011;50167;47.958;21.780;2023-09-07T04:41:06;8.73;;;6.10;;
63975;SDS011;50167;47.958;21.780;2023-09-07T04:43:36;8.90;;;6.22;;
63975;SDS011;50167;47.958;21.780;2023-09-07T04:46:03;12.87;;;6.77;;
63975;SDS011;50167;47.958;21.780;2023-09-07T04:48:29;17.50;;;7.00;;
63975;SDS011;50167;47.958;21.780;2023-09-07T04:51:03;9.03;;;6.13;;
63975;SDS011;50167;47.958;21.780;2023-09-07T04:53:28;10.23;;;7.40;;
63975;SDS011;50167;47.958;21.780;2023-09-07T04:55:57;12.90;;;6.17;;
63975;SDS011;50167;47.958;21.780;2023-09-07T04:58:23;20.37;;;6.70;;
63975;SDS011;50167;47.958;21.780;2023-09-07T05:00:50;10.47;;;5.53;;
63975;SDS011;50167;47.958;21.780;2023-09-07T05:03:17;10.37;;;6.10;;
63975;SDS011;50167;47.958;21.780;2023-09-07T05:05:43;8.60;;;6.30;;
63975;SDS011;50167;47.958;21.780;2023-09-07T05:08:09;8.87;;;5.90;;
63975;SDS011;50167;47.958;21.780;2023-09-07T05:10:38;8.30;;;5.97;;
63975;SDS011;50167;47.958;21.780;2023-09-07T05:13:04;8.70;;;6.23;;
63975;SDS011;50167;47.958;21.780;2023-09-07T05:15:30;9.13;;;5.77;;
63975;SDS011;50167;47.958;21.780;2023-09-07T05:17:56;13.67;;;6.37;;
63975;SDS011;50167;47.958;21.780;2023-09-07T05:20:22;10.90;;;5.50;;
63975;SDS011;50167;47.958;21.780;2023-09-07T05:22:49;11.83;;;6.63;;
63975;SDS011;50167;47.958;21.780;2023-09-07T05:25:16;9.90;;;6.07;;
63975;SDS011;50167;47.958;21.780;2023-09-07T05:27:42;11.07;;;6.63;;
63975;SDS011;50167;47.958;21.780;2023-09-07T05:30:10;13.47;;;6.83;;
63975;SDS011;50167;47.958;21.780;2023-09-07T05:32:37;12.07;;;6.17;;
63975;SDS011;50167;47.958;21.780;2023-09-07T05:35:03;8.57;;;5.30;;
63975;SDS011;50167;47.958;21.780;2023-09-07T05:37:30;11.63;;;6.83;;
63975;SDS011;50167;47.958;21.780;2023-09-07T05:39:57;10.07;;;5.60;;
63975;SDS011;50167;47.958;21.780;2023-09-07T05:42:23;11.90;;;5.83;;
63975;SDS011;50167;47.958;21.780;2023-09-07T05:44:51;12.87;;;7.13;;
63975;SDS011;50167;47.958;21.780;2023-09-07T05:47:18;14.00;;;6.33;;
63975;SDS011;50167;47.958;21.780;2023-09-07T05:49:44;11.43;;;6.40;;
63975;SDS011;50167;47.958;21.780;2023-09-07T05:52:10;12.80;;;6.20;;
63975;SDS011;50167;47.958;21.780;2023-09-07T05:54:36;12.37;;;6.63;;
63975;SDS011;50167;47.958;21.780;2023-09-07T05:57:02;16.60;;;6.60;;
63975;SDS011;50167;47.958;21.780;2023-09-07T05:59:29;14.07;;;7.67;;
63975;SDS011;50167;47.958;21.780;2023-09-07T06:01:55;11.10;;;6.63;;
63975;SDS011;50167;47.958;21.780;2023-09-07T06:04:21;9.43;;;6.67;;
63975;SDS011;50167;47.958;21.780;2023-09-07T06:06:47;9.07;;;6.17;;
63975;SDS011;50167;47.958;21.780;2023-09-07T06:09:13;12.73;;;7.07;;
63975;SDS011;50167;47.958;21.780;2023-09-07T06:11:39;11.33;;;7.03;;
63975;SDS011;50167;47.958;21.780;2023-09-07T06:14:05;10.37;;;6.33;;
63975;SDS011;50167;47.958;21.780;2023-09-07T06:16:32;10.27;;;6.87;;
63975;SDS011;50167;47.958;21.780;2023-09-07T06:18:58;14.73;;;7.27;;
63975;SDS011;50167;47.958;21.780;2023-09-07T06:21:24;13.97;;;7.57;;
63975;SDS011;50167;47.958;21.780;2023-09-07T06:23:50;9.87;;;6.43;;
63975;SDS011;50167;47.958;21.780;2023-09-07T06:26:17;12.30;;;7.20;;
63975;SDS011;50167;47.958;21.780;2023-09-07T06:28:44;12.70;;;7.77;;
63975;SDS011;50167;47.958;21.780;2023-09-07T06:31:10;12.50;;;7.07;;
63975;SDS011;50167;47.958;21.780;2023-09-07T06:33:36;12.17;;;6.83;;
63975;SDS011;50167;47.958;21.780;2023-09-07T06:36:03;14.57;;;7.67;;
63975;SDS011;50167;47.958;21.780;2023-09-07T06:38:29;12.83;;;8.13;;
63975;SDS011;50167;47.958;21.780;2023-09-07T06:40:55;10.57;;;6.90;;
63975;SDS011;50167;47.958;21.780;2023-09-07T06:43:21;15.03;;;7.27;;
63975;SDS011;50167;47.958;21.780;2023-09-07T06:45:48;12.57;;;6.90;;
63975;SDS011;50167;47.958;21.780;2023-09-07T06:48:14;9.93;;;7.37;;
63975;SDS011;50167;47.958;21.780;2023-09-07T06:50:40;14.57;;;7.97;;
63975;SDS011;50167;47.958;21.780;2023-09-07T06:53:06;10.95;;;6.78;;
63975;SDS011;50167;47.958;21.780;2023-09-07T06:55:33;12.33;;;7.50;;
63975;SDS011;50167;47.958;21.780;2023-09-07T06:57:59;13.15;;;7.75;;
63975;SDS011;50167;47.958;21.780;2023-09-07T07:00:26;12.13;;;7.60;;
63975;SDS011;50167;47.958;21.780;2023-09-07T07:02:52;13.88;;;7.83;;
63975;SDS011;50167;47.958;21.780;2023-09-07T07:05:19;12.25;;;7.47;;
63975;SDS011;50167;47.958;21.780;2023-09-07T07:07:47;13.32;;;7.60;;
63975;SDS011;50167;47.958;21.780;2023-09-07T07:10:13;11.90;;;7.08;;
63975;SDS011;50167;47.958;21.780;2023-09-07T07:12:39;11.53;;;7.72;;
63975;SDS011;50167;47.958;21.780;2023-09-07T07:15:06;21.00;;;8.78;;
63975;SDS011;50167;47.958;21.780;2023-09-07T07:17:33;16.97;;;8.80;;
63975;SDS011;50167;47.958;21.780;2023-09-07T07:19:59;13.22;;;7.12;;
63975;SDS011;50167;47.958;21.780;2023-09-07T07:22:25;10.88;;;6.17;;
63975;SDS011;50167;47.958;21.780;2023-09-07T07:24:52;10.20;;;6.67;;
63975;SDS011;50167;47.958;21.780;2023-09-07T07:27:18;13.50;;;8.60;;
63975;SDS011;50167;47.958;21.780;2023-09-07T07:29:44;10.43;;;7.35;;
63975;SDS011;50167;47.958;21.780;2023-09-07T07:32:11;12.78;;;7.70;;
63975;SDS011;50167;47.958;21.780;2023-09-07T07:34:37;11.80;;;6.75;;
63975;SDS011;50167;47.958;21.780;2023-09-07T07:37:06;10.23;;;6.90;;
63975;SDS011;50167;47.958;21.780;2023-09-07T07:39:32;11.10;;;6.55;;
63975;SDS011;50167;47.958;21.780;2023-09-07T07:41:58;24.07;;;8.18;;
63975;SDS011;50167;47.958;21.780;2023-09-07T07:44:24;8.88;;;7.05;;
63975;SDS011;50167;47.958;21.780;2023-09-07T07:46:51;8.95;;;6.17;;
63975;SDS011;50167;47.958;21.780;2023-09-07T07:49:17;12.25;;;6.70;;
63975;SDS011;50167;47.958;21.780;2023-09-07T07:51:43;9.65;;;6.72;;
63975;SDS011;50167;47.958;21.780;2023-09-07T07:54:09;9.85;;;6.30;;
63975;SDS011;50167;47.958;21.780;2023-09-07T07:56:35;9.48;;;5.78;;
63975;SDS011;50167;47.958;21.780;2023-09-07T07:59:02;8.05;;;6.25;;
63975;SDS011;50167;47.958;21.780;2023-09-07T08:01:28;9.20;;;5.87;;
63975;SDS011;50167;47.958;21.780;2023-09-07T08:03:54;10.40;;;6.83;;
63975;SDS011;50167;47.958;21.780;2023-09-07T08:06:21;12.30;;;7.10;;
63975;SDS011;50167;47.958;21.780;2023-09-07T08:08:47;10.43;;;6.87;;
63975;SDS011;50167;47.958;21.780;2023-09-07T08:11:13;8.65;;;6.25;;
63975;SDS011;50167;47.958;21.780;2023-09-07T08:13:40;12.70;;;6.90;;
63975;SDS011;50167;47.958;21.780;2023-09-07T08:16:06;14.05;;;6.47;;
63975;SDS011;50167;47.958;21.780;2023-09-07T08:18:33;8.38;;;5.97;;
63975;SDS011;50167;47.958;21.780;2023-09-07T08:20:59;10.90;;;6.28;;
63975;SDS011;50167;47.958;21.780;2023-09-07T08:23:26;11.30;;;6.42;;
63975;SDS011;50167;47.958;21.780;2023-09-07T08:25:53;10.40;;;6.67;;
63975;SDS011;50167;47.958;21.780;2023-09-07T08:28:20;10.18;;;6.08;;
63975;SDS011;50167;47.958;21.780;2023-09-07T08:30:50;14.75;;;8.50;;
63975;SDS011;50167;47.958;21.780;2023-09-07T08:33:22;13.55;;;6.03;;
63975;SDS011;50167;47.958;21.780;2023-09-07T08:35:55;10.45;;;6.35;;
63975;SDS011;50167;47.958;21.780;2023-09-07T08:38:23;10.55;;;7.60;;
63975;SDS011;50167;47.958;21.780;2023-09-07T08:40:52;10.95;;;6.42;;
63975;SDS011;50167;47.958;21.780;2023-09-07T08:43:23;13.90;;;7.53;;
63975;SDS011;50167;47.958;21.780;2023-09-07T08:45:51;9.68;;;6.80;;
63975;SDS011;50167;47.958;21.780;2023-09-07T08:48:32;9.65;;;5.97;;
63975;SDS011;50167;47.958;21.780;2023-09-07T08:50:59;14.33;;;6.58;;
63975;SDS011;50167;47.958;21.780;2023-09-07T08:53:26;9.43;;;5.80;;
63975;SDS011;50167;47.958;21.780;2023-09-07T08:55:53;7.92;;;5.80;;
63975;SDS011;50167;47.958;21.780;2023-09-07T08:58:19;8.30;;;5.55;;
63975;SDS011;50167;47.958;21.780;2023-09-07T09:00:45;13.80;;;6.70;;
63975;SDS011;50167;47.958;21.780;2023-09-07T09:03:12;9.35;;;5.85;;
63975;SDS011;50167;47.958;21.780;2023-09-07T09:05:39;7.40;;;5.17;;
63975;SDS011;50167;47.958;21.780;2023-09-07T09:08:06;9.40;;;5.45;;
63975;SDS011;50167;47.958;21.780;2023-09-07T09:10:33;8.53;;;5.15;;
63975;SDS011;50167;47.958;21.780;2023-09-07T09:13:00;7.35;;;4.92;;
63975;SDS011;50167;47.958;21.780;2023-09-07T09:15:26;8.65;;;5.60;;
63975;SDS011;50167;47.958;21.780;2023-09-07T09:17:53;9.10;;;5.20;;
63975;SDS011;50167;47.958;21.780;2023-09-07T09:20:25;7.53;;;5.03;;
63975;SDS011;50167;47.958;21.780;2023-09-07T09:22:52;12.63;;;5.72;;
63975;SDS011;50167;47.958;21.780;2023-09-07T09:25:20;22.48;;;6.53;;
63975;SDS011;50167;47.958;21.780;2023-09-07T09:27:47;13.55;;;6.25;;
63975;SDS011;50167;47.958;21.780;2023-09-07T09:30:14;6.00;;;4.60;;
63975;SDS011;50167;47.958;21.780;2023-09-07T09:32:42;11.35;;;5.25;;
63975;SDS011;50167;47.958;21.780;2023-09-07T09:35:09;7.55;;;5.05;;
63975;SDS011;50167;47.958;21.780;2023-09-07T09:37:45;6.92;;;5.47;;
63975;SDS011;50167;47.958;21.780;2023-09-07T09:40:14;8.13;;;4.83;;
63975;SDS011;50167;47.958;21.780;2023-09-07T09:42:44;6.00;;;4.85;;
63975;SDS011;50167;47.958;21.780;2023-09-07T09:45:11;10.35;;;5.00;;
63975;SDS011;50167;47.958;21.780;2023-09-07T09:47:39;9.33;;;4.83;;
63975;SDS011;50167;47.958;21.780;2023-09-07T09:50:08;11.53;;;4.92;;
63975;SDS011;50167;47.958;21.780;2023-09-07T09:52:37;7.50;;;4.87;;
63975;SDS011;50167;47.958;21.780;2023-09-07T09:55:04;12.70;;;5.10;;
63975;SDS011;50167;47.958;21.780;2023-09-07T09:57:36;12.03;;;5.05;;
63975;SDS011;50167;47.958;21.780;2023-09-07T10:00:03;8.15;;;5.15;;
63975;SDS011;50167;47.958;21.780;2023-09-07T10:05:24;6.42;;;4.25;;
63975;SDS011;50167;47.958;21.780;2023-09-07T10:07:51;8.28;;;4.33;;
63975;SDS011;50167;47.958;21.780;2023-09-07T10:10:18;5.53;;;3.98;;
63975;SDS011;50167;47.958;21.780;2023-09-07T10:12:50;10.03;;;4.60;;
63975;SDS011;50167;47.958;21.780;2023-09-07T10:15:20;9.63;;;4.50;;
63975;SDS011;50167;47.958;21.780;2023-09-07T10:20:47;6.55;;;4.75;;
63975;SDS011;50167;47.958;21.780;2023-09-07T10:23:34;7.20;;;4.60;;
63975;SDS011;50167;47.958;21.780;2023-09-07T10:26:12;6.03;;;4.30;;
63975;SDS011;50167;47.958;21.780;2023-09-07T10:28:43;9.43;;;4.35;;
63975;SDS011;50167;47.958;21.780;2023-09-07T10:33:48;10.45;;;4.72;;
63975;SDS011;50167;47.958;21.780;2023-09-07T10:36:21;5.92;;;3.67;;
63975;SDS011;50167;47.958;21.780;2023-09-07T10:38:49;5.15;;;3.92;;
63975;SDS011;50167;47.958;21.780;2023-09-07T10:41:19;6.45;;;4.83;;
63975;SDS011;50167;47.958;21.780;2023-09-07T10:43:47;4.95;;;4.22;;
63975;SDS011;50167;47.958;21.780;2023-09-07T10:46:23;5.92;;;3.87;;
63975;SDS011;50167;47.958;21.780;2023-09-07T10:48:50;4.60;;;4.10;;
63975;SDS011;50167;47.958;21.780;2023-09-07T10:51:18;5.28;;;4.30;;
63975;SDS011;50167;47.958;21.780;2023-09-07T10:53:45;6.58;;;4.30;;
63975;SDS011;50167;47.958;21.780;2023-09-07T10:56:12;7.53;;;5.00;;
63975;SDS011;50167;47.958;21.780;2023-09-07T10:58:39;5.45;;;4.28;;
63975;SDS011;50167;47.958;21.780;2023-09-07T11:01:08;5.70;;;3.87;;
63975;SDS011;50167;47.958;21.780;2023-09-07T11:03:36;6.53;;;4.40;;
63975;SDS011;50167;47.958;21.780;2023-09-07T11:10:05;6.95;;;4.35;;
63975;SDS011;50167;47.958;21.780;2023-09-07T11:12:40;5.42;;;3.98;;
63975;SDS011;50167;47.958;21.780;2023-09-07T11:15:09;7.22;;;4.10;;
63975;SDS011;50167;47.958;21.780;2023-09-07T11:17:37;6.30;;;4.47;;
63975;SDS011;50167;47.958;21.780;2023-09-07T11:20:07;7.33;;;3.98;;
63975;SDS011;50167;47.958;21.780;2023-09-07T11:22:36;5.20;;;3.72;;
63975;SDS011;50167;47.958;21.780;2023-09-07T11:25:04;7.55;;;4.30;;
63975;SDS011;50167;47.958;21.780;2023-09-07T11:27:32;8.60;;;4.35;;
63975;SDS011;50167;47.958;21.780;2023-09-07T11:29:58;7.97;;;5.17;;
63975;SDS011;50167;47.958;21.780;2023-09-07T11:32:32;4.87;;;3.92;;
63975;SDS011;50167;47.958;21.780;2023-09-07T11:34:59;7.05;;;3.70;;
63975;SDS011;50167;47.958;21.780;2023-09-07T11:37:26;4.55;;;3.92;;
63975;SDS011;50167;47.958;21.780;2023-09-07T11:39:52;6.40;;;4.40;;
63975;SDS011;50167;47.958;21.780;2023-09-07T11:42:19;6.70;;;4.47;;
63975;SDS011;50167;47.958;21.780;2023-09-07T11:44:45;6.22;;;3.95;;
63975;SDS011;50167;47.958;21.780;2023-09-07T11:47:12;8.05;;;4.10;;
63975;SDS011;50167;47.958;21.780;2023-09-07T11:49:38;9.80;;;4.37;;
63975;SDS011;50167;47.958;21.780;2023-09-07T11:52:05;10.10;;;4.20;;
63975;SDS011;50167;47.958;21.780;2023-09-07T11:54:32;8.70;;;4.30;;
63975;SDS011;50167;47.958;21.780;2023-09-07T11:56:59;9.08;;;3.83;;
63975;SDS011;50167;47.958;21.780;2023-09-07T11:59:25;5.55;;;4.55;;
63975;SDS011;50167;47.958;21.780;2023-09-07T12:01:53;5.70;;;4.30;;
63975;SDS011;50167;47.958;21.780;2023-09-07T12:04:20;5.50;;;3.98;;
63975;SDS011;50167;47.958;21.780;2023-09-07T12:06:46;5.25;;;4.15;;
63975;SDS011;50167;47.958;21.780;2023-09-07T12:09:12;10.48;;;4.08;;
63975;SDS011;50167;47.958;21.780;2023-09-07T12:11:40;4.30;;;3.90;;
63975;SDS011;50167;47.958;21.780;2023-09-07T12:14:07;7.65;;;3.95;;
63975;SDS011;50167;47.958;21.780;2023-09-07T12:16:34;7.30;;;3.98;;
63975;SDS011;50167;47.958;21.780;2023-09-07T12:19:00;8.05;;;4.30;;
63975;SDS011;50167;47.958;21.780;2023-09-07T12:21:27;4.42;;;4.00;;
63975;SDS011;50167;47.958;21.780;2023-09-07T12:23:53;8.53;;;4.10;;
63975;SDS011;50167;47.958;21.780;2023-09-07T12:26:20;7.40;;;4.15;;
63975;SDS011;50167;47.958;21.780;2023-09-07T12:28:46;5.35;;;3.65;;
63975;SDS011;50167;47.958;21.780;2023-09-07T12:31:13;4.55;;;3.87;;
63975;SDS011;50167;47.958;21.780;2023-09-07T12:33:40;14.53;;;4.95;;
63975;SDS011;50167;47.958;21.780;2023-09-07T12:36:06;4.67;;;3.58;;
63975;SDS011;50167;47.958;21.780;2023-09-07T12:38:37;5.78;;;3.92;;
63975;SDS011;50167;47.958;21.780;2023-09-07T12:41:04;4.72;;;3.67;;
63975;SDS011;50167;47.958;21.780;2023-09-07T12:43:30;3.95;;;3.55;;
63975;SDS011;50167;47.958;21.780;2023-09-07T12:45:58;4.55;;;4.03;;
63975;SDS011;50167;47.958;21.780;2023-09-07T12:48:24;5.90;;;4.05;;
63975;SDS011;50167;47.958;21.780;2023-09-07T12:50:51;5.90;;;4.12;;
63975;SDS011;50167;47.958;21.780;2023-09-07T12:53:17;6.95;;;4.83;;
63975;SDS011;50167;47.958;21.780;2023-09-07T12:55:44;6.65;;;4.20;;
63975;SDS011;50167;47.958;21.780;2023-09-07T12:58:11;5.12;;;4.10;;
63975;SDS011;50167;47.958;21.780;2023-09-07T13:00:37;13.20;;;4.17;;
63975;SDS011;50167;47.958;21.780;2023-09-07T13:03:04;5.40;;;4.00;;
63975;SDS011;50167;47.958;21.780;2023-09-07T13:05:30;3.67;;;3.33;;
63975;SDS011;50167;47.958;21.780;2023-09-07T13:07:56;6.03;;;3.67;;
63975;SDS011;50167;47.958;21.780;2023-09-07T13:10:25;7.93;;;3.77;;
63975;SDS011;50167;47.958;21.780;2023-09-07T13:12:51;5.55;;;3.85;;
63975;SDS011;50167;47.958;21.780;2023-09-07T13:15:17;4.62;;;3.72;;
63975;SDS011;50167;47.958;21.780;2023-09-07T13:17:43;4.00;;;3.70;;
63975;SDS011;50167;47.958;21.780;2023-09-07T13:20:10;9.08;;;3.67;;
63975;SDS011;50167;47.958;21.780;2023-09-07T13:22:37;4.05;;;3.67;;
63975;SDS011;50167;47.958;21.780;2023-09-07T13:25:04;9.28;;;6.55;;
63975;SDS011;50167;47.958;21.780;2023-09-07T13:27:31;5.47;;;4.42;;
63975;SDS011;50167;47.958;21.780;2023-09-07T13:29:57;4.50;;;3.92;;
63975;SDS011;50167;47.958;21.780;2023-09-07T13:32:23;4.67;;;3.95;;
63975;SDS011;50167;47.958;21.780;2023-09-07T13:34:50;4.47;;;4.05;;
63975;SDS011;50167;47.958;21.780;2023-09-07T13:37:16;7.30;;;3.95;;
63975;SDS011;50167;47.958;21.780;2023-09-07T13:39:43;4.10;;;3.12;;
63975;SDS011;50167;47.958;21.780;2023-09-07T13:42:09;7.25;;;3.22;;
63975;SDS011;50167;47.958;21.780;2023-09-07T13:44:35;4.45;;;3.75;;
63975;SDS011;50167;47.958;21.780;2023-09-07T13:47:01;4.40;;;3.20;;
63975;SDS011;50167;47.958;21.780;2023-09-07T13:49:28;11.97;;;4.35;;
63975;SDS011;50167;47.958;21.780;2023-09-07T13:51:54;7.35;;;3.25;;
63975;SDS011;50167;47.958;21.780;2023-09-07T13:54:20;8.58;;;3.60;;
63975;SDS011;50167;47.958;21.780;2023-09-07T13:56:46;4.17;;;3.55;;
63975;SDS011;50167;47.958;21.780;2023-09-07T13:59:12;4.75;;;3.42;;
63975;SDS011;50167;47.958;21.780;2023-09-07T14:01:39;5.03;;;3.95;;
63975;SDS011;50167;47.958;21.780;2023-09-07T14:04:05;3.55;;;3.25;;
63975;SDS011;50167;47.958;21.780;2023-09-07T14:06:32;5.35;;;3.55;;
63975;SDS011;50167;47.958;21.780;2023-09-07T14:08:58;7.20;;;3.40;;
63975;SDS011;50167;47.958;21.780;2023-09-07T14:11:24;8.05;;;3.95;;
63975;SDS011;50167;47.958;21.780;2023-09-07T14:13:51;4.87;;;3.72;;
63975;SDS011;50167;47.958;21.780;2023-09-07T14:16:18;6.92;;;3.40;;
63975;SDS011;50167;47.958;21.780;2023-09-07T14:18:47;5.05;;;3.33;;
63975;SDS011;50167;47.958;21.780;2023-09-07T14:21:14;8.83;;;3.25;;
63975;SDS011;50167;47.958;21.780;2023-09-07T14:23:41;4.85;;;3.52;;
63975;SDS011;50167;47.958;21.780;2023-09-07T14:26:08;6.33;;;3.40;;
63975;SDS011;50167;47.958;21.780;2023-09-07T14:28:35;6.03;;;4.12;;
63975;SDS011;50167;47.958;21.780;2023-09-07T14:31:03;4.20;;;3.25;;
63975;SDS011;50167;47.958;21.780;2023-09-07T14:33:32;4.50;;;3.50;;
63975;SDS011;50167;47.958;21.780;2023-09-07T14:35:59;5.00;;;3.00;;
63975;SDS011;50167;47.958;21.780;2023-09-07T14:38:26;4.70;;;4.28;;
63975;SDS011;50167;47.958;21.780;2023-09-07T14:40:55;7.37;;;3.62;;